Airfield :







YOU CAN JOIN US ON...

 
LOGIN :

Register | Disclaimer

   EN    FR    IT 

 









Legend :    VFR   Marginal VFR   IFR   Intensive IFR   Very Intensive IFR
Visi :
Ceiling :
>= 8 km
>= 3000ft
5 to 8 km
1000 to 3000 ft
1500m to 5 km
500 to 1000 ft
800 to 1500m
200 to 500 ft
< 800m
< 200 ft
Symbols :   Thunderstorms  Fog  Heavy snow  Heavy precipitations  Wind > 20 kt






- Airport Elevation : 357 ft
- IATA code : YSJ


CYSJ - Saint John

CURRENT METAR :
  • 010700Z 19003KT 180V240 3SM BR SCT003 11/11 A2982 RMK SF4 SLP100

EXPIRED METARs :
  • 010637Z 21004KT 3SM BR BKN002 11/11 A2982 RMK SF5 SLP100
  • 010600Z 18006KT 1 1/2SM BR OVC002 13/13 A2982 RMK SF8 SLP101
  • 010500Z 20004KT 3/4SM R23/4000V5500FT/U BR VV002 13/13 A2981 RMK FG8 SLP096 DENSITY ALT 400FT

TAF AMD TAF CYSJ
Valid from the 01 at 07:00 until the 01 at 18:00 UTC


010708Z 0107/0118 VRB03KT 1/2SM FG VV002
TEMPO 0107/0109 3SM BR SCT002
FM010900 23008KT P6SM SCT015
PROB30 0109/0112 2SM BR
FM011200 20010KT P6SM SKC
BECMG 0114/0116 21015G25KT RMK NXT FCST BY 011200Z
CZQM FIR / North America



MET'MAP, your aeronautical weather chart ! - Copyright ORBIFLY December 2007 - Disclaimer

ORBIFLY MET'MAP TEAM :

Programming & Development : Alexandra Zaïnal
Concept & original design : Baudouin d'Aumeries
Assistance for programming : Marc-Olivier Méhu
Technical & hardware support : Manuel Goepfert

Contact : metmap@orbifly.com




SOURCES & CREDITS :

   NOAA